sensor_id;sensor_type;location;lat;lon;timestamp;pressure;altitude;pressure_sealevel;temperature;humidity
47592;BME280;33317;33.356;-117.184;2022-08-07T00:00:39;98774.00;;;29.36;24.29
47592;BME280;33317;33.356;-117.184;2022-08-07T00:03:08;98774.94;;;28.54;25.17
47592;BME280;33317;33.356;-117.184;2022-08-07T00:05:35;98774.71;;;28.64;25.57
47592;BME280;33317;33.356;-117.184;2022-08-07T00:08:05;98772.43;;;28.96;24.43
47592;BME280;33317;33.356;-117.184;2022-08-07T00:10:34;98776.16;;;29.39;23.83
47592;BME280;33317;33.356;-117.184;2022-08-07T00:13:05;98775.80;;;29.83;23.77
47592;BME280;33317;33.356;-117.184;2022-08-07T00:15:34;98776.18;;;29.81;23.50
47592;BME280;33317;33.356;-117.184;2022-08-07T00:18:02;98783.09;;;28.85;24.48
47592;BME280;33317;33.356;-117.184;2022-08-07T00:20:31;98783.99;;;28.96;24.88
47592;BME280;33317;33.356;-117.184;2022-08-07T00:22:59;98772.51;;;29.31;23.72
47592;BME280;33317;33.356;-117.184;2022-08-07T00:25:27;98771.86;;;29.53;23.36
47592;BME280;33317;33.356;-117.184;2022-08-07T00:27:56;98765.12;;;29.87;22.90
47592;BME280;33317;33.356;-117.184;2022-08-07T00:30:25;98767.83;;;29.47;23.52
47592;BME280;33317;33.356;-117.184;2022-08-07T00:32:54;98774.68;;;29.13;24.04
47592;BME280;33317;33.356;-117.184;2022-08-07T00:35:23;98773.42;;;29.26;24.10
47592;BME280;33317;33.356;-117.184;2022-08-07T00:37:51;98773.73;;;29.83;23.63
47592;BME280;33317;33.356;-117.184;2022-08-07T00:40:20;98774.92;;;29.93;23.40
47592;BME280;33317;33.356;-117.184;2022-08-07T00:42:48;98770.30;;;30.26;23.28
47592;BME280;33317;33.356;-117.184;2022-08-07T00:45:17;98771.68;;;29.19;23.96
47592;BME280;33317;33.356;-117.184;2022-08-07T00:47:45;98770.34;;;28.94;24.09
47592;BME280;33317;33.356;-117.184;2022-08-07T00:50:16;98772.15;;;28.74;24.39
47592;BME280;33317;33.356;-117.184;2022-08-07T00:52:49;98767.84;;;29.48;23.57
47592;BME280;33317;33.356;-117.184;2022-08-07T00:55:23;98760.51;;;29.96;22.90
47592;BME280;33317;33.356;-117.184;2022-08-07T00:57:52;98765.30;;;29.78;22.60
47592;BME280;33317;33.356;-117.184;2022-08-07T01:00:20;98765.39;;;29.91;22.91
47592;BME280;33317;33.356;-117.184;2022-08-07T01:02:49;98770.26;;;28.63;23.75
47592;BME280;33317;33.356;-117.184;2022-08-07T01:05:19;98769.90;;;28.96;23.51
47592;BME280;33317;33.356;-117.184;2022-08-07T01:07:48;98769.20;;;29.50;23.40
47592;BME280;33317;33.356;-117.184;2022-08-07T01:10:17;98766.67;;;29.95;23.04
47592;BME280;33317;33.356;-117.184;2022-08-07T01:12:46;98764.95;;;30.23;22.70
47592;BME280;33317;33.356;-117.184;2022-08-07T01:15:15;98762.81;;;29.99;22.96
47592;BME280;33317;33.356;-117.184;2022-08-07T01:17:43;98763.91;;;29.20;23.48
47592;BME280;33317;33.356;-117.184;2022-08-07T01:20:24;98769.41;;;28.63;24.71
47592;BME280;33317;33.356;-117.184;2022-08-07T01:22:58;98764.74;;;29.11;23.47
47592;BME280;33317;33.356;-117.184;2022-08-07T01:25:28;98762.23;;;29.41;22.94
47592;BME280;33317;33.356;-117.184;2022-08-07T01:28:03;98764.57;;;30.00;22.55
47592;BME280;33317;33.356;-117.184;2022-08-07T01:30:32;98765.09;;;29.94;22.40
47592;BME280;33317;33.356;-117.184;2022-08-07T01:33:00;98762.05;;;30.01;22.13
47592;BME280;33317;33.356;-117.184;2022-08-07T01:35:29;98759.35;;;30.20;22.30
47592;BME280;33317;33.356;-117.184;2022-08-07T01:37:59;98763.34;;;29.87;22.62
47592;BME280;33317;33.356;-117.184;2022-08-07T01:40:28;98764.34;;;29.13;23.18
47592;BME280;33317;33.356;-117.184;2022-08-07T01:42:57;98767.49;;;29.05;23.54
47592;BME280;33317;33.356;-117.184;2022-08-07T01:45:25;98763.70;;;29.60;22.83
47592;BME280;33317;33.356;-117.184;2022-08-07T01:47:53;98767.04;;;29.97;22.39
47592;BME280;33317;33.356;-117.184;2022-08-07T01:50:22;98768.82;;;29.94;22.10
47592;BME280;33317;33.356;-117.184;2022-08-07T01:52:52;98772.43;;;30.07;22.06
47592;BME280;33317;33.356;-117.184;2022-08-07T01:55:24;98777.81;;;30.38;22.14
47592;BME280;33317;33.356;-117.184;2022-08-07T01:57:56;98783.87;;;29.69;22.43
47592;BME280;33317;33.356;-117.184;2022-08-07T02:00:29;98791.54;;;29.24;23.49
47592;BME280;33317;33.356;-117.184;2022-08-07T02:03:02;98793.01;;;29.56;22.93
47592;BME280;33317;33.356;-117.184;2022-08-07T02:05:37;98797.07;;;29.69;22.44
47592;BME280;33317;33.356;-117.184;2022-08-07T02:08:09;98798.60;;;29.88;22.08
47592;BME280;33317;33.356;-117.184;2022-08-07T02:10:39;98801.25;;;29.96;21.98
47592;BME280;33317;33.356;-117.184;2022-08-07T02:13:10;98807.10;;;29.82;21.93
47592;BME280;33317;33.356;-117.184;2022-08-07T02:15:39;98811.41;;;29.82;22.41
47592;BME280;33317;33.356;-117.184;2022-08-07T02:18:11;98817.71;;;29.32;22.78
47592;BME280;33317;33.356;-117.184;2022-08-07T02:20:48;98819.78;;;29.24;23.25
47592;BME280;33317;33.356;-117.184;2022-08-07T02:23:19;98816.24;;;29.33;22.86
47592;BME280;33317;33.356;-117.184;2022-08-07T02:25:49;98822.40;;;29.92;22.40
47592;BME280;33317;33.356;-117.184;2022-08-07T02:28:20;98827.09;;;30.11;22.13
47592;BME280;33317;33.356;-117.184;2022-08-07T02:30:49;98825.87;;;29.69;22.00
47592;BME280;33317;33.356;-117.184;2022-08-07T02:33:19;98828.51;;;30.10;22.31
47592;BME280;33317;33.356;-117.184;2022-08-07T02:35:51;98830.05;;;29.20;22.75
47592;BME280;33317;33.356;-117.184;2022-08-07T02:38:24;98838.50;;;28.95;23.14
47592;BME280;33317;33.356;-117.184;2022-08-07T02:40:55;98836.15;;;28.99;23.35
47592;BME280;33317;33.356;-117.184;2022-08-07T02:43:28;98842.13;;;29.18;23.02
47592;BME280;33317;33.356;-117.184;2022-08-07T02:45:58;98841.81;;;29.80;22.88
47592;BME280;33317;33.356;-117.184;2022-08-07T02:48:27;98849.38;;;29.76;22.73
47592;BME280;33317;33.356;-117.184;2022-08-07T02:50:58;98849.03;;;30.13;22.41
47592;BME280;33317;33.356;-117.184;2022-08-07T02:53:32;98849.17;;;29.91;22.70
47592;BME280;33317;33.356;-117.184;2022-08-07T02:56:03;98855.21;;;29.29;23.26
47592;BME280;33317;33.356;-117.184;2022-08-07T02:58:36;98860.73;;;29.14;23.70
47592;BME280;33317;33.356;-117.184;2022-08-07T03:01:10;98862.06;;;29.49;23.38
47592;BME280;33317;33.356;-117.184;2022-08-07T03:03:39;98865.33;;;29.49;23.26
47592;BME280;33317;33.356;-117.184;2022-08-07T03:06:13;98868.06;;;29.99;23.34
47592;BME280;33317;33.356;-117.184;2022-08-07T03:08:43;98870.37;;;29.67;23.31
47592;BME280;33317;33.356;-117.184;2022-08-07T03:11:13;98871.36;;;30.04;23.13
47592;BME280;33317;33.356;-117.184;2022-08-07T03:13:47;98874.20;;;30.05;22.96
47592;BME280;33317;33.356;-117.184;2022-08-07T03:16:17;98878.60;;;29.13;23.54
47592;BME280;33317;33.356;-117.184;2022-08-07T03:18:46;98887.15;;;28.58;24.30
47592;BME280;33317;33.356;-117.184;2022-08-07T03:21:20;98887.15;;;29.03;23.75
47592;BME280;33317;33.356;-117.184;2022-08-07T03:23:56;98889.34;;;29.27;23.41
47592;BME280;33317;33.356;-117.184;2022-08-07T03:26:29;98894.96;;;29.75;23.56
47592;BME280;33317;33.356;-117.184;2022-08-07T03:29:06;98895.79;;;29.70;23.41
47592;BME280;33317;33.356;-117.184;2022-08-07T03:31:38;98897.73;;;29.79;23.52
47592;BME280;33317;33.356;-117.184;2022-08-07T03:34:09;98897.27;;;29.79;23.19
47592;BME280;33317;33.356;-117.184;2022-08-07T03:36:45;98898.48;;;29.37;23.21
47592;BME280;33317;33.356;-117.184;2022-08-07T03:39:17;98898.19;;;29.39;23.66
47592;BME280;33317;33.356;-117.184;2022-08-07T03:41:47;98901.40;;;29.67;23.09
47592;BME280;33317;33.356;-117.184;2022-08-07T03:44:15;98899.81;;;29.80;22.81
47592;BME280;33317;33.356;-117.184;2022-08-07T03:46:47;98901.79;;;29.94;22.85
47592;BME280;33317;33.356;-117.184;2022-08-07T03:49:15;98906.06;;;29.64;23.05
47592;BME280;33317;33.356;-117.184;2022-08-07T03:51:45;98906.18;;;30.08;23.09
47592;BME280;33317;33.356;-117.184;2022-08-07T03:54:15;98911.55;;;29.91;23.01
47592;BME280;33317;33.356;-117.184;2022-08-07T03:56:44;98915.65;;;30.23;23.20
47592;BME280;33317;33.356;-117.184;2022-08-07T03:59:15;98917.25;;;29.44;23.33
47592;BME280;33317;33.356;-117.184;2022-08-07T04:01:46;98917.43;;;29.43;23.46
47592;BME280;33317;33.356;-117.184;2022-08-07T04:04:25;98926.61;;;29.21;23.63
47592;BME280;33317;33.356;-117.184;2022-08-07T04:06:53;98924.57;;;29.77;23.45
47592;BME280;33317;33.356;-117.184;2022-08-07T04:09:27;98926.98;;;29.70;23.02
47592;BME280;33317;33.356;-117.184;2022-08-07T04:11:56;98926.19;;;29.84;22.73
47592;BME280;33317;33.356;-117.184;2022-08-07T04:14:31;98930.17;;;29.93;22.76
47592;BME280;33317;33.356;-117.184;2022-08-07T04:17:06;98931.87;;;29.74;22.81
47592;BME280;33317;33.356;-117.184;2022-08-07T04:19:42;98929.87;;;29.74;22.94
47592;BME280;33317;33.356;-117.184;2022-08-07T04:22:21;98927.30;;;29.21;23.28
47592;BME280;33317;33.356;-117.184;2022-08-07T04:24:56;98928.64;;;29.16;23.45
47592;BME280;33317;33.356;-117.184;2022-08-07T04:27:33;98931.07;;;29.48;23.43
47592;BME280;33317;33.356;-117.184;2022-08-07T04:30:02;98930.58;;;29.68;23.33
47592;BME280;33317;33.356;-117.184;2022-08-07T04:32:35;98936.49;;;29.78;23.26
47592;BME280;33317;33.356;-117.184;2022-08-07T04:35:07;98938.20;;;29.87;23.12
47592;BME280;33317;33.356;-117.184;2022-08-07T04:37:40;98937.54;;;29.95;22.71
47592;BME280;33317;33.356;-117.184;2022-08-07T04:40:10;98936.67;;;29.77;22.94
47592;BME280;33317;33.356;-117.184;2022-08-07T04:42:39;98939.66;;;29.46;23.18
47592;BME280;33317;33.356;-117.184;2022-08-07T04:45:09;98941.16;;;29.13;23.52
47592;BME280;33317;33.356;-117.184;2022-08-07T04:47:42;98950.66;;;29.59;23.45
47592;BME280;33317;33.356;-117.184;2022-08-07T04:50:21;98957.61;;;29.54;23.47
47592;BME280;33317;33.356;-117.184;2022-08-07T04:52:58;98959.13;;;29.63;23.39
47592;BME280;33317;33.356;-117.184;2022-08-07T04:55:43;98957.61;;;29.70;23.47
47592;BME280;33317;33.356;-117.184;2022-08-07T04:58:23;98954.45;;;29.52;23.43
47592;BME280;33317;33.356;-117.184;2022-08-07T05:01:03;98959.94;;;29.58;23.52
47592;BME280;33317;33.356;-117.184;2022-08-07T05:03:45;98964.24;;;29.86;23.71
47592;BME280;33317;33.356;-117.184;2022-08-07T05:06:20;98959.12;;;29.58;23.76
47592;BME280;33317;33.356;-117.184;2022-08-07T05:08:57;98957.94;;;29.58;23.81
47592;BME280;33317;33.356;-117.184;2022-08-07T05:11:31;98956.12;;;29.58;23.84
47592;BME280;33317;33.356;-117.184;2022-08-07T05:14:05;98950.19;;;29.87;23.85
47592;BME280;33317;33.356;-117.184;2022-08-07T05:16:37;98951.73;;;29.87;23.90
47592;BME280;33317;33.356;-117.184;2022-08-07T05:19:12;98953.10;;;29.64;23.93
47592;BME280;33317;33.356;-117.184;2022-08-07T05:21:48;98954.28;;;29.90;23.84
47592;BME280;33317;33.356;-117.184;2022-08-07T05:24:19;98952.28;;;29.90;23.87
47592;BME280;33317;33.356;-117.184;2022-08-07T05:26:51;98948.20;;;29.62;23.99
47592;BME280;33317;33.356;-117.184;2022-08-07T05:29:27;98942.89;;;29.89;24.11
47592;BME280;33317;33.356;-117.184;2022-08-07T05:32:03;98944.79;;;29.88;24.23
47592;BME280;33317;33.356;-117.184;2022-08-07T05:34:35;98945.78;;;29.62;24.14
47592;BME280;33317;33.356;-117.184;2022-08-07T05:37:05;98946.95;;;29.91;24.19
47592;BME280;33317;33.356;-117.184;2022-08-07T05:39:35;98947.21;;;29.90;24.24
47592;BME280;33317;33.356;-117.184;2022-08-07T05:42:04;98947.80;;;29.89;24.28
47592;BME280;33317;33.356;-117.184;2022-08-07T05:44:35;98949.74;;;29.89;24.36
47592;BME280;33317;33.356;-117.184;2022-08-07T05:47:05;98948.99;;;29.64;24.27
47592;BME280;33317;33.356;-117.184;2022-08-07T05:49:37;98946.19;;;29.90;24.31
47592;BME280;33317;33.356;-117.184;2022-08-07T05:52:07;98945.33;;;29.63;24.34
47592;BME280;33317;33.356;-117.184;2022-08-07T05:54:36;98945.11;;;29.89;24.43
47592;BME280;33317;33.356;-117.184;2022-08-07T05:57:08;98943.06;;;29.61;24.56
47592;BME280;33317;33.356;-117.184;2022-08-07T05:59:39;98946.24;;;29.86;24.63
47592;BME280;33317;33.356;-117.184;2022-08-07T06:02:10;98949.51;;;29.84;24.60
47592;BME280;33317;33.356;-117.184;2022-08-07T06:04:52;98950.03;;;29.57;24.64
47592;BME280;33317;33.356;-117.184;2022-08-07T06:07:22;98946.84;;;29.83;24.71
47592;BME280;33317;33.356;-117.184;2022-08-07T06:09:51;98945.68;;;29.82;24.78
47592;BME280;33317;33.356;-117.184;2022-08-07T06:12:20;98942.79;;;29.82;24.81
47592;BME280;33317;33.356;-117.184;2022-08-07T06:14:49;98940.94;;;29.54;24.78
47592;BME280;33317;33.356;-117.184;2022-08-07T06:17:18;98941.77;;;29.80;24.87
47592;BME280;33317;33.356;-117.184;2022-08-07T06:19:47;98944.08;;;29.82;24.82
47592;BME280;33317;33.356;-117.184;2022-08-07T06:22:17;98945.13;;;29.81;24.87
47592;BME280;33317;33.356;-117.184;2022-08-07T06:24:46;98946.48;;;29.79;24.95
47592;BME280;33317;33.356;-117.184;2022-08-07T06:27:21;98950.22;;;29.75;24.81
47592;BME280;33317;33.356;-117.184;2022-08-07T06:29:49;98952.92;;;29.74;24.96
47592;BME280;33317;33.356;-117.184;2022-08-07T06:32:17;98955.39;;;29.46;24.99
47592;BME280;33317;33.356;-117.184;2022-08-07T06:34:46;98956.04;;;29.70;25.04
47592;BME280;33317;33.356;-117.184;2022-08-07T06:37:15;98957.53;;;29.69;25.12
47592;BME280;33317;33.356;-117.184;2022-08-07T06:39:43;98956.52;;;29.66;25.27
47592;BME280;33317;33.356;-117.184;2022-08-07T06:42:16;98956.30;;;29.64;25.25
47592;BME280;33317;33.356;-117.184;2022-08-07T06:44:46;98956.73;;;29.63;25.26
47592;BME280;33317;33.356;-117.184;2022-08-07T06:47:15;98958.37;;;29.60;25.29
47592;BME280;33317;33.356;-117.184;2022-08-07T06:49:44;98957.99;;;29.60;25.47
47592;BME280;33317;33.356;-117.184;2022-08-07T06:52:15;98958.59;;;29.60;25.42
47592;BME280;33317;33.356;-117.184;2022-08-07T06:54:45;98958.05;;;29.52;25.44
47592;BME280;33317;33.356;-117.184;2022-08-07T06:57:16;98958.61;;;29.52;25.47
47592;BME280;33317;33.356;-117.184;2022-08-07T06:59:45;98959.20;;;29.51;25.50
47592;BME280;33317;33.356;-117.184;2022-08-07T07:02:18;98959.43;;;29.31;25.55
47592;BME280;33317;33.356;-117.184;2022-08-07T07:04:47;98963.16;;;29.59;25.46
47592;BME280;33317;33.356;-117.184;2022-08-07T07:07:16;98964.47;;;29.55;25.48
47592;BME280;33317;33.356;-117.184;2022-08-07T07:09:45;98959.00;;;29.69;25.63
47592;BME280;33317;33.356;-117.184;2022-08-07T07:12:24;98960.04;;;29.45;25.69
47592;BME280;33317;33.356;-117.184;2022-08-07T07:14:57;98962.13;;;29.47;25.66
47592;BME280;33317;33.356;-117.184;2022-08-07T07:17:33;98959.95;;;29.46;25.82
47592;BME280;33317;33.356;-117.184;2022-08-07T07:20:07;98961.24;;;29.47;25.79
47592;BME280;33317;33.356;-117.184;2022-08-07T07:22:38;98960.82;;;29.46;25.78
47592;BME280;33317;33.356;-117.184;2022-08-07T07:25:07;98961.81;;;29.43;25.83
47592;BME280;33317;33.356;-117.184;2022-08-07T07:27:44;98960.95;;;29.42;25.86
47592;BME280;33317;33.356;-117.184;2022-08-07T07:30:15;98958.96;;;29.41;25.85
47592;BME280;33317;33.356;-117.184;2022-08-07T07:32:44;98958.24;;;29.39;25.86
47592;BME280;33317;33.356;-117.184;2022-08-07T07:35:14;98958.86;;;29.37;25.91
47592;BME280;33317;33.356;-117.184;2022-08-07T07:37:44;98958.98;;;29.35;26.02
47592;BME280;33317;33.356;-117.184;2022-08-07T07:40:18;98959.87;;;29.34;26.10
47592;BME280;33317;33.356;-117.184;2022-08-07T07:42:51;98964.11;;;29.34;25.98
47592;BME280;33317;33.356;-117.184;2022-08-07T07:45:22;98966.35;;;29.33;26.13
47592;BME280;33317;33.356;-117.184;2022-08-07T07:47:52;98968.56;;;29.32;26.07
47592;BME280;33317;33.356;-117.184;2022-08-07T07:50:22;98969.20;;;29.31;26.11
47592;BME280;33317;33.356;-117.184;2022-08-07T07:52:52;98965.76;;;29.29;26.15
47592;BME280;33317;33.356;-117.184;2022-08-07T07:55:22;98964.74;;;29.30;26.23
47592;BME280;33317;33.356;-117.184;2022-08-07T07:57:51;98965.02;;;29.28;26.21
47592;BME280;33317;33.356;-117.184;2022-08-07T08:00:20;98963.62;;;29.25;26.38
47592;BME280;33317;33.356;-117.184;2022-08-07T08:02:50;98961.73;;;29.23;26.31
47592;BME280;33317;33.356;-117.184;2022-08-07T08:05:21;98955.49;;;29.22;26.29
47592;BME280;33317;33.356;-117.184;2022-08-07T08:07:51;98956.94;;;29.21;26.34
47592;BME280;33317;33.356;-117.184;2022-08-07T08:10:19;98963.51;;;29.44;26.34
47592;BME280;33317;33.356;-117.184;2022-08-07T08:12:50;98964.20;;;29.43;26.27
47592;BME280;33317;33.356;-117.184;2022-08-07T08:15:19;98971.11;;;29.19;26.36
47592;BME280;33317;33.356;-117.184;2022-08-07T08:17:48;98969.42;;;29.17;26.30
47592;BME280;33317;33.356;-117.184;2022-08-07T08:20:17;98966.59;;;29.11;26.32
47592;BME280;33317;33.356;-117.184;2022-08-07T08:22:46;98960.10;;;29.06;26.39
47592;BME280;33317;33.356;-117.184;2022-08-07T08:25:17;98956.90;;;29.51;26.51
47592;BME280;33317;33.356;-117.184;2022-08-07T08:27:51;98954.05;;;29.05;26.53
47592;BME280;33317;33.356;-117.184;2022-08-07T08:30:21;98950.24;;;29.29;26.42
47592;BME280;33317;33.356;-117.184;2022-08-07T08:32:53;98954.48;;;29.52;26.37
47592;BME280;33317;33.356;-117.184;2022-08-07T08:35:25;98959.07;;;29.05;26.44
47592;BME280;33317;33.356;-117.184;2022-08-07T08:37:57;98962.49;;;29.45;26.44
47592;BME280;33317;33.356;-117.184;2022-08-07T08:40:30;98962.45;;;29.21;26.70
47592;BME280;33317;33.356;-117.184;2022-08-07T08:43:07;98963.40;;;29.23;26.77
47592;BME280;33317;33.356;-117.184;2022-08-07T08:45:43;98963.35;;;29.01;26.63
47592;BME280;33317;33.356;-117.184;2022-08-07T08:48:22;98960.51;;;29.21;26.70
47592;BME280;33317;33.356;-117.184;2022-08-07T08:50:57;98956.19;;;29.21;26.82
47592;BME280;33317;33.356;-117.184;2022-08-07T08:53:33;98957.11;;;28.99;26.75
47592;BME280;33317;33.356;-117.184;2022-08-07T08:56:09;98965.48;;;28.97;26.72
47592;BME280;33317;33.356;-117.184;2022-08-07T08:58:47;98967.65;;;29.18;26.77
47592;BME280;33317;33.356;-117.184;2022-08-07T09:01:24;98963.28;;;28.95;26.94
47592;BME280;33317;33.356;-117.184;2022-08-07T09:04:07;98962.51;;;29.16;27.01
47592;BME280;33317;33.356;-117.184;2022-08-07T09:06:47;98958.26;;;29.14;26.96
47592;BME280;33317;33.356;-117.184;2022-08-07T09:09:34;98955.98;;;28.91;26.84
47592;BME280;33317;33.356;-117.184;2022-08-07T09:12:13;98955.69;;;28.92;26.66
47592;BME280;33317;33.356;-117.184;2022-08-07T09:14:56;98958.69;;;28.89;26.73
47592;BME280;33317;33.356;-117.184;2022-08-07T09:17:36;98956.32;;;29.10;26.88
47592;BME280;33317;33.356;-117.184;2022-08-07T09:20:17;98953.13;;;28.87;26.84
47592;BME280;33317;33.356;-117.184;2022-08-07T09:22:59;98950.77;;;29.29;26.84
47592;BME280;33317;33.356;-117.184;2022-08-07T09:25:37;98949.72;;;29.07;26.81
47592;BME280;33317;33.356;-117.184;2022-08-07T09:28:07;98945.77;;;28.84;26.94
47592;BME280;33317;33.356;-117.184;2022-08-07T09:30:50;98945.24;;;29.03;26.96
47592;BME280;33317;33.356;-117.184;2022-08-07T09:33:39;98944.18;;;29.01;27.06
47592;BME280;33317;33.356;-117.184;2022-08-07T09:36:20;98943.77;;;29.00;27.01
47592;BME280;33317;33.356;-117.184;2022-08-07T09:38:57;98943.78;;;29.00;27.17
47592;BME280;33317;33.356;-117.184;2022-08-07T09:41:33;98943.63;;;28.98;27.14
47592;BME280;33317;33.356;-117.184;2022-08-07T09:44:08;98941.50;;;28.99;27.15
47592;BME280;33317;33.356;-117.184;2022-08-07T09:46:52;98938.39;;;28.73;27.12
47592;BME280;33317;33.356;-117.184;2022-08-07T09:49:40;98933.60;;;28.73;27.20
47592;BME280;33317;33.356;-117.184;2022-08-07T09:52:19;98928.26;;;28.96;27.07
47592;BME280;33317;33.356;-117.184;2022-08-07T09:54:54;98928.95;;;28.95;27.27
47592;BME280;33317;33.356;-117.184;2022-08-07T09:57:49;98930.31;;;29.15;27.25
47592;BME280;33317;33.356;-117.184;2022-08-07T10:00:28;98927.26;;;29.17;27.06
47592;BME280;33317;33.356;-117.184;2022-08-07T10:03:12;98925.30;;;28.95;27.21
47592;BME280;33317;33.356;-117.184;2022-08-07T10:06:14;98927.67;;;28.92;27.25
47592;BME280;33317;33.356;-117.184;2022-08-07T10:09:18;98925.82;;;28.90;27.25
47592;BME280;33317;33.356;-117.184;2022-08-07T10:12:03;98924.29;;;29.14;27.25
47592;BME280;33317;33.356;-117.184;2022-08-07T10:14:54;98917.96;;;28.89;27.30
47592;BME280;33317;33.356;-117.184;2022-08-07T10:17:43;98912.45;;;29.10;27.40
47592;BME280;33317;33.356;-117.184;2022-08-07T10:20:24;98905.77;;;29.08;27.34
47592;BME280;33317;33.356;-117.184;2022-08-07T10:23:11;98905.04;;;28.83;27.45
47592;BME280;33317;33.356;-117.184;2022-08-07T10:25:56;98903.72;;;29.05;27.44
47592;BME280;33317;33.356;-117.184;2022-08-07T10:28:44;98902.86;;;28.83;27.49
47592;BME280;33317;33.356;-117.184;2022-08-07T10:31:37;98906.17;;;29.03;27.39
47592;BME280;33317;33.356;-117.184;2022-08-07T10:34:26;98906.43;;;28.82;27.41
47592;BME280;33317;33.356;-117.184;2022-08-07T10:37:09;98900.79;;;29.03;27.39
47592;BME280;33317;33.356;-117.184;2022-08-07T10:39:53;98893.47;;;28.99;27.36
47592;BME280;33317;33.356;-117.184;2022-08-07T10:42:35;98889.06;;;28.79;27.47
47592;BME280;33317;33.356;-117.184;2022-08-07T10:45:17;98884.56;;;28.78;27.39
47592;BME280;33317;33.356;-117.184;2022-08-07T10:48:04;98887.29;;;28.80;27.43
47592;BME280;33317;33.356;-117.184;2022-08-07T10:50:38;98886.88;;;28.75;27.62
47592;BME280;33317;33.356;-117.184;2022-08-07T10:53:12;98885.74;;;28.71;27.62
47592;BME280;33317;33.356;-117.184;2022-08-07T10:55:48;98881.14;;;28.91;27.71
47592;BME280;33317;33.356;-117.184;2022-08-07T10:58:33;98875.61;;;28.46;27.69
47592;BME280;33317;33.356;-117.184;2022-08-07T11:01:20;98872.90;;;28.68;27.67
47592;BME280;33317;33.356;-117.184;2022-08-07T11:03:59;98867.65;;;28.89;27.72
47592;BME280;33317;33.356;-117.184;2022-08-07T11:06:39;98866.20;;;28.88;27.71
47592;BME280;33317;33.356;-117.184;2022-08-07T11:09:12;98864.38;;;28.87;27.72
47592;BME280;33317;33.356;-117.184;2022-08-07T11:11:48;98867.05;;;28.82;27.87
47592;BME280;33317;33.356;-117.184;2022-08-07T11:14:25;98869.13;;;28.60;27.78
47592;BME280;33317;33.356;-117.184;2022-08-07T11:17:02;98871.94;;;28.83;27.75
47592;BME280;33317;33.356;-117.184;2022-08-07T11:19:37;98870.16;;;28.84;27.74
47592;BME280;33317;33.356;-117.184;2022-08-07T11:22:11;98871.53;;;28.38;27.66
47592;BME280;33317;33.356;-117.184;2022-08-07T11:24:48;98870.43;;;28.59;27.66
47592;BME280;33317;33.356;-117.184;2022-08-07T11:27:22;98874.35;;;28.82;27.67
47592;BME280;33317;33.356;-117.184;2022-08-07T11:29:56;98875.58;;;28.80;27.69
47592;BME280;33317;33.356;-117.184;2022-08-07T11:32:36;98876.70;;;28.79;27.73
47592;BME280;33317;33.356;-117.184;2022-08-07T11:35:09;98880.95;;;28.56;27.69
47592;BME280;33317;33.356;-117.184;2022-08-07T11:37:55;98883.33;;;28.80;27.79
47592;BME280;33317;33.356;-117.184;2022-08-07T11:40:37;98886.66;;;28.56;27.86
47592;BME280;33317;33.356;-117.184;2022-08-07T11:43:21;98889.28;;;28.77;27.89
47592;BME280;33317;33.356;-117.184;2022-08-07T11:46:07;98890.41;;;28.71;27.88
47592;BME280;33317;33.356;-117.184;2022-08-07T11:48:55;98893.13;;;28.71;27.92
47592;BME280;33317;33.356;-117.184;2022-08-07T11:51:37;98894.93;;;28.70;27.96
47592;BME280;33317;33.356;-117.184;2022-08-07T11:54:18;98892.78;;;28.69;27.94
47592;BME280;33317;33.356;-117.184;2022-08-07T11:57:04;98892.12;;;28.67;27.96
47592;BME280;33317;33.356;-117.184;2022-08-07T11:59:55;98891.83;;;28.36;28.07
47592;BME280;33317;33.356;-117.184;2022-08-07T12:02:41;98895.38;;;28.60;28.08
47592;BME280;33317;33.356;-117.184;2022-08-07T12:05:25;98899.84;;;28.61;28.07
47592;BME280;33317;33.356;-117.184;2022-08-07T12:08:01;98899.06;;;28.83;28.08
47592;BME280;33317;33.356;-117.184;2022-08-07T12:10:38;98903.64;;;28.86;28.01
47592;BME280;33317;33.356;-117.184;2022-08-07T12:13:14;98909.43;;;28.62;27.98
47592;BME280;33317;33.356;-117.184;2022-08-07T12:15:49;98913.29;;;28.58;27.99
47592;BME280;33317;33.356;-117.184;2022-08-07T12:18:24;98912.17;;;28.60;27.95
47592;BME280;33317;33.356;-117.184;2022-08-07T12:21:09;98914.12;;;28.38;27.99
47592;BME280;33317;33.356;-117.184;2022-08-07T12:23:45;98913.73;;;28.60;27.90
47592;BME280;33317;33.356;-117.184;2022-08-07T12:26:24;98912.60;;;28.56;28.02
47592;BME280;33317;33.356;-117.184;2022-08-07T12:29:00;98915.47;;;28.49;28.15
47592;BME280;33317;33.356;-117.184;2022-08-07T12:31:36;98916.39;;;28.37;28.36
47592;BME280;33317;33.356;-117.184;2022-08-07T12:34:06;98915.41;;;28.31;28.43
47592;BME280;33317;33.356;-117.184;2022-08-07T12:36:36;98923.78;;;28.18;28.49
47592;BME280;33317;33.356;-117.184;2022-08-07T12:39:06;98927.38;;;28.18;28.50
47592;BME280;33317;33.356;-117.184;2022-08-07T12:41:36;98929.76;;;28.21;28.46
47592;BME280;33317;33.356;-117.184;2022-08-07T12:44:13;98932.43;;;28.21;28.42
47592;BME280;33317;33.356;-117.184;2022-08-07T12:46:54;98938.35;;;28.17;28.46
47592;BME280;33317;33.356;-117.184;2022-08-07T12:49:34;98942.79;;;28.21;28.47
47592;BME280;33317;33.356;-117.184;2022-08-07T12:52:11;98943.75;;;28.24;27.54
47592;BME280;33317;33.356;-117.184;2022-08-07T12:54:46;98945.33;;;28.23;27.65
47592;BME280;33317;33.356;-117.184;2022-08-07T12:57:23;98949.81;;;28.21;27.73
47592;BME280;33317;33.356;-117.184;2022-08-07T12:59:53;98953.29;;;28.39;27.74
47592;BME280;33317;33.356;-117.184;2022-08-07T13:02:41;98956.26;;;28.31;27.82
47592;BME280;33317;33.356;-117.184;2022-08-07T13:05:28;98955.81;;;28.51;27.90